createdAt,value
2017-01-30T00:00:05.682Z,1006.79
2017-01-30T00:01:16.270Z,1006.79
2017-01-30T00:02:26.020Z,1006.76
2017-01-30T00:03:36.660Z,1006.75
2017-01-30T00:04:46.395Z,1006.72
2017-01-30T00:05:57.000Z,1006.7
2017-01-30T00:07:07.155Z,1006.68
2017-01-30T00:08:17.310Z,1006.64
2017-01-30T00:09:27.111Z,1006.63
2017-01-30T00:10:37.705Z,1006.61
2017-01-30T00:11:48.734Z,1006.59
2017-01-30T00:12:58.456Z,1006.59
2017-01-30T00:14:08.629Z,1006.58
2017-01-30T00:15:18.399Z,1006.52
2017-01-30T00:16:28.997Z,1006.55
2017-01-30T00:17:39.599Z,1006.46
2017-01-30T00:18:48.912Z,1006.46
2017-01-30T00:19:59.068Z,1006.45
2017-01-30T00:21:09.278Z,1006.44
2017-01-30T00:22:19.003Z,1006.44
2017-01-30T00:23:29.157Z,1006.39
2017-01-30T00:24:38.886Z,1006.35
2017-01-30T00:25:49.481Z,1006.37
2017-01-30T00:26:59.690Z,1006.41
2017-01-30T00:28:10.293Z,1006.4
2017-01-30T00:29:20.457Z,1006.45
2017-01-30T00:30:29.740Z,1006.4
2017-01-30T00:31:40.338Z,1006.47
2017-01-30T00:32:50.544Z,1006.45
2017-01-30T00:34:00.693Z,1006.44
2017-01-30T00:35:10.415Z,1006.41
2017-01-30T00:36:20.567Z,1006.42
2017-01-30T00:37:30.728Z,1006.39
2017-01-30T00:38:40.932Z,1006.4
2017-01-30T00:39:51.101Z,1006.4
2017-01-30T00:41:00.384Z,1006.36
2017-01-30T00:42:09.671Z,1006.34
2017-01-30T00:43:20.271Z,1006.34
2017-01-30T00:44:30.570Z,1006.35
2017-01-30T00:45:40.314Z,1006.33
2017-01-30T00:46:50.040Z,1006.31
2017-01-30T00:48:00.638Z,1006.32
2017-01-30T00:49:10.793Z,1006.29
2017-01-30T00:50:20.568Z,1006.26
2017-01-30T00:51:30.715Z,1006.27
2017-01-30T00:52:40.438Z,1006.22
2017-01-30T00:53:49.731Z,1006.26
2017-01-30T00:54:59.889Z,1006.23
2017-01-30T00:56:10.105Z,1006.24
2017-01-30T00:57:20.699Z,1006.22
2017-01-30T00:58:30.858Z,1006.2
2017-01-30T00:59:40.584Z,1006.21
2017-01-30T01:00:50.741Z,1006.17
2017-01-30T01:02:00.944Z,1006.17
2017-01-30T01:03:10.227Z,1006.14
2017-01-30T01:04:19.949Z,1006.13
2017-01-30T01:05:29.669Z,1006.13
2017-01-30T01:06:38.960Z,1006.12
2017-01-30T01:07:48.728Z,1006.13
2017-01-30T01:08:58.010Z,1006.13
2017-01-30T01:10:07.736Z,1006.1
2017-01-30T01:11:17.457Z,1006.09
2017-01-30T01:12:26.746Z,1006.09
2017-01-30T01:13:36.958Z,1006.11
2017-01-30T01:14:46.253Z,1006.08
2017-01-30T01:15:56.412Z,1006.07
2017-01-30T01:17:05.699Z,1006.04
2017-01-30T01:18:15.418Z,1006.01
2017-01-30T01:19:24.747Z,1005.97
2017-01-30T01:20:34.466Z,1005.98
2017-01-30T01:21:44.182Z,1005.95
2017-01-30T01:22:53.903Z,1005.88
2017-01-30T01:24:04.495Z,1005.86
2017-01-30T01:25:14.278Z,1005.85
2017-01-30T01:26:23.995Z,1005.83
2017-01-30T01:27:34.159Z,1005.81
2017-01-30T01:28:43.883Z,1005.82
2017-01-30T01:29:54.087Z,1005.75
2017-01-30T01:31:04.297Z,1005.78
2017-01-30T01:32:13.583Z,1005.75
2017-01-30T01:33:24.614Z,1005.74
2017-01-30T01:34:35.204Z,1005.75
2017-01-30T01:35:44.493Z,1005.69
2017-01-30T01:36:54.701Z,1005.74
2017-01-30T01:38:05.291Z,1005.71
2017-01-30T01:39:15.440Z,1005.71
2017-01-30T01:40:25.607Z,1005.67
2017-01-30T01:41:35.337Z,1005.65
2017-01-30T01:42:45.136Z,1005.64
2017-01-30T01:43:55.733Z,1005.65
2017-01-30T01:45:05.451Z,1005.66
2017-01-30T01:46:15.607Z,1005.66
2017-01-30T01:47:25.325Z,1005.67
2017-01-30T01:48:35.537Z,1005.66
2017-01-30T01:49:44.820Z,1005.62
2017-01-30T01:50:54.979Z,1005.68
2017-01-30T01:52:04.705Z,1005.65
2017-01-30T01:53:14.426Z,1005.63
2017-01-30T01:54:24.196Z,1005.57
2017-01-30T01:55:34.794Z,1005.56
2017-01-30T01:56:44.087Z,1005.55
2017-01-30T01:57:54.235Z,1005.5
2017-01-30T01:59:04.393Z,1005.59
2017-01-30T02:00:14.166Z,1005.5
2017-01-30T02:01:24.763Z,1005.52
2017-01-30T02:02:35.360Z,1005.54
2017-01-30T02:03:45.954Z,1005.46
2017-01-30T02:04:56.128Z,1005.46
2017-01-30T02:06:06.772Z,1005.47
2017-01-30T02:07:16.503Z,1005.41
2017-01-30T02:08:26.663Z,1005.4
2017-01-30T02:09:36.419Z,1005.36
2017-01-30T02:10:46.139Z,1005.3
2017-01-30T02:11:55.914Z,1005.32
2017-01-30T02:13:06.075Z,1005.25
2017-01-30T02:14:16.236Z,1005.27
2017-01-30T02:15:27.389Z,1005.24
2017-01-30T02:16:37.125Z,1005.19
2017-01-30T02:17:47.791Z,1005.15
2017-01-30T02:18:57.963Z,1005.13
2017-01-30T02:20:07.701Z,1005.15
2017-01-30T02:21:17.870Z,1005.19
2017-01-30T02:22:27.600Z,1005.11
2017-01-30T02:23:37.821Z,1005.1
2017-01-30T02:24:47.550Z,1005.05
2017-01-30T02:25:57.730Z,1005.01
2017-01-30T02:27:07.468Z,1005.04
2017-01-30T02:28:17.641Z,1005.1
2017-01-30T02:29:27.429Z,1005.04
2017-01-30T02:30:37.161Z,1004.96
2017-01-30T02:31:46.457Z,1005.03
2017-01-30T02:32:56.191Z,1005
2017-01-30T02:34:06.369Z,1005.01
2017-01-30T02:35:16.157Z,1004.99
2017-01-30T02:36:25.899Z,1004.99
2017-01-30T02:37:35.635Z,1004.94
2017-01-30T02:38:45.367Z,1004.93
2017-01-30T02:39:55.537Z,1004.91
2017-01-30T02:41:05.326Z,1004.84
2017-01-30T02:42:15.055Z,1004.89
2017-01-30T02:43:25.229Z,1004.86
2017-01-30T02:44:35.401Z,1004.85
2017-01-30T02:45:45.602Z,1004.83
2017-01-30T02:46:55.384Z,1004.81
2017-01-30T02:48:05.124Z,1004.83
2017-01-30T02:49:14.858Z,1004.8
2017-01-30T02:50:25.032Z,1004.85
2017-01-30T02:51:36.095Z,1004.81
2017-01-30T02:52:45.882Z,1004.79
2017-01-30T02:53:56.056Z,1004.8
2017-01-30T02:55:05.792Z,1004.76
2017-01-30T02:56:15.523Z,1004.75
2017-01-30T02:57:25.698Z,1004.73
2017-01-30T02:58:35.924Z,1004.71
2017-01-30T02:59:45.662Z,1004.68
2017-01-30T03:00:55.397Z,1004.68
2017-01-30T03:02:05.139Z,1004.67
2017-01-30T03:03:15.312Z,1004.63
2017-01-30T03:04:25.094Z,1004.67
2017-01-30T03:05:35.715Z,1004.66
2017-01-30T03:06:45.889Z,1004.64
2017-01-30T03:07:55.617Z,1004.62
2017-01-30T03:09:06.230Z,1004.62
2017-01-30T03:10:16.460Z,1004.61
2017-01-30T03:11:26.633Z,1004.65
2017-01-30T03:12:36.392Z,1004.59
2017-01-30T03:13:46.135Z,1004.6
2017-01-30T03:14:56.753Z,1004.58
2017-01-30T03:16:06.978Z,1004.53
2017-01-30T03:17:16.707Z,1004.56
2017-01-30T03:18:26.475Z,1004.53
2017-01-30T03:19:36.219Z,1004.54
2017-01-30T03:20:45.955Z,1004.53
2017-01-30T03:21:56.175Z,1004.48
2017-01-30T03:23:06.352Z,1004.52
2017-01-30T03:24:16.970Z,1004.46
2017-01-30T03:25:27.143Z,1004.44
2017-01-30T03:26:36.870Z,1004.47
2017-01-30T03:27:47.101Z,1004.47
2017-01-30T03:28:56.398Z,1004.46
2017-01-30T03:30:06.132Z,1004.47
2017-01-30T03:31:16.307Z,1004.4
2017-01-30T03:32:26.045Z,1004.4
2017-01-30T03:33:35.832Z,1004.39
2017-01-30T03:34:46.005Z,1004.4
2017-01-30T03:35:56.621Z,1004.36
2017-01-30T03:37:06.799Z,1004.33
2017-01-30T03:38:16.976Z,1004.33
2017-01-30T03:39:27.198Z,1004.3
2017-01-30T03:40:36.952Z,1004.33
2017-01-30T03:41:46.683Z,1004.31
2017-01-30T03:42:56.416Z,1004.27
2017-01-30T03:44:06.153Z,1004.24
2017-01-30T03:45:16.476Z,1004.23
2017-01-30T03:46:25.776Z,1004.23
2017-01-30T03:47:35.506Z,1004.2
2017-01-30T03:48:45.678Z,1004.21
2017-01-30T03:49:55.854Z,1004.2
2017-01-30T03:51:05.792Z,1004.15
2017-01-30T03:52:15.969Z,1004.13
2017-01-30T03:53:25.702Z,1004.11
2017-01-30T03:54:35.876Z,1004.03
2017-01-30T03:55:45.606Z,1003.99
2017-01-30T03:56:55.390Z,1003.98
2017-01-30T03:58:05.129Z,1003.93
2017-01-30T03:59:15.300Z,1003.92
2017-01-30T04:00:25.474Z,1003.91
2017-01-30T04:01:35.207Z,1003.83
2017-01-30T04:02:44.988Z,1003.82
2017-01-30T04:03:55.187Z,1003.83
2017-01-30T04:05:05.806Z,1003.84
2017-01-30T04:06:15.979Z,1003.77
2017-01-30T04:07:25.712Z,1003.78
2017-01-30T04:08:35.528Z,1003.78
2017-01-30T04:09:44.827Z,1003.76
2017-01-30T04:10:54.559Z,1003.75
2017-01-30T04:12:04.293Z,1003.7
2017-01-30T04:13:14.472Z,1003.67
2017-01-30T04:14:23.816Z,1003.67
2017-01-30T04:15:33.577Z,1003.7
2017-01-30T04:16:43.334Z,1003.64
2017-01-30T04:17:53.515Z,1003.61
2017-01-30T04:19:03.692Z,1003.58
2017-01-30T04:20:13.923Z,1003.53
2017-01-30T04:21:23.667Z,1003.53
2017-01-30T04:22:33.844Z,1003.52
2017-01-30T04:23:43.576Z,1003.5
2017-01-30T04:24:53.303Z,1003.48
2017-01-30T04:26:02.676Z,1003.47
2017-01-30T04:27:12.421Z,1003.43
2017-01-30T04:28:22.152Z,1003.42
2017-01-30T04:29:31.891Z,1003.43
2017-01-30T04:30:42.060Z,1003.37
2017-01-30T04:31:52.725Z,1003.39
2017-01-30T04:33:02.482Z,1003.4
2017-01-30T04:34:12.219Z,1003.38
2017-01-30T04:35:22.392Z,1003.39
2017-01-30T04:36:32.565Z,1003.31
2017-01-30T04:37:42.507Z,1003.26
2017-01-30T04:38:52.249Z,1003.22
2017-01-30T04:40:01.991Z,1003.23
2017-01-30T04:41:11.720Z,1003.2
2017-01-30T04:42:21.456Z,1003.22
2017-01-30T04:43:31.232Z,1003.23
2017-01-30T04:44:40.961Z,1003.21
2017-01-30T04:45:51.574Z,1003.17
2017-01-30T04:47:01.753Z,1003.17
2017-01-30T04:48:11.953Z,1003.09
2017-01-30T04:49:22.175Z,1003.1
2017-01-30T04:50:31.904Z,1003.09
2017-01-30T04:51:41.640Z,1003.09
2017-01-30T04:52:51.817Z,1003.08
2017-01-30T04:54:01.551Z,1003.05
2017-01-30T04:55:11.333Z,1002.99
2017-01-30T04:56:21.073Z,1002.99
2017-01-30T04:57:31.242Z,1002.98
2017-01-30T04:58:40.972Z,1002.96
2017-01-30T04:59:51.597Z,1002.95
2017-01-30T05:01:01.822Z,1002.95
2017-01-30T05:02:12.434Z,1002.9
2017-01-30T05:03:23.052Z,1002.91
2017-01-30T05:04:32.793Z,1002.91
2017-01-30T05:05:43.411Z,1002.91
2017-01-30T05:06:53.202Z,1002.92
2017-01-30T05:08:02.940Z,1002.95
2017-01-30T05:09:12.670Z,1002.97
2017-01-30T05:10:22.405Z,1002.95
2017-01-30T05:11:32.579Z,1002.95
2017-01-30T05:12:42.366Z,1002.9
2017-01-30T05:13:52.545Z,1002.92
2017-01-30T05:15:02.723Z,1002.9
2017-01-30T05:16:12.456Z,1002.87
2017-01-30T05:17:22.190Z,1002.88
2017-01-30T05:18:31.971Z,1002.86
2017-01-30T05:19:41.700Z,1002.86
2017-01-30T05:20:52.322Z,1002.85
2017-01-30T05:22:02.495Z,1002.84
2017-01-30T05:23:12.227Z,1002.85
2017-01-30T05:24:22.913Z,1002.8
2017-01-30T05:25:32.654Z,1002.77
2017-01-30T05:26:42.383Z,1002.74
2017-01-30T05:27:52.555Z,1002.7
2017-01-30T05:29:02.730Z,1002.63
2017-01-30T05:30:12.966Z,1002.63
2017-01-30T05:31:22.703Z,1002.56
2017-01-30T05:32:32.433Z,1002.48
2017-01-30T05:33:42.615Z,1002.44
2017-01-30T05:34:52.351Z,1002.38
2017-01-30T05:36:02.136Z,1002.34
2017-01-30T05:37:11.869Z,1002.31
2017-01-30T05:38:21.602Z,1002.27
2017-01-30T05:39:31.775Z,1002.29
2017-01-30T05:40:41.513Z,1002.29
2017-01-30T05:41:51.293Z,1002.29
2017-01-30T05:43:01.026Z,1002.27
2017-01-30T05:44:10.751Z,1002.24
2017-01-30T05:45:20.921Z,1002.22
2017-01-30T05:46:30.658Z,1002.2
2017-01-30T05:47:40.444Z,1002.2
2017-01-30T05:48:50.168Z,1002.21
2017-01-30T05:50:00.341Z,1002.1
2017-01-30T05:51:10.522Z,1002.1
2017-01-30T05:52:20.287Z,1002.08
2017-01-30T05:53:30.069Z,1002.04
2017-01-30T05:54:39.366Z,1002
2017-01-30T05:55:49.099Z,1001.97
2017-01-30T05:56:58.828Z,1001.95
2017-01-30T05:58:09.007Z,1001.94
2017-01-30T05:59:18.351Z,1001.86
2017-01-30T06:00:28.092Z,1001.84
2017-01-30T06:01:38.268Z,1001.79
2017-01-30T06:02:48.002Z,1001.8
2017-01-30T06:03:58.174Z,1001.71
2017-01-30T06:05:07.961Z,1001.75
2017-01-30T06:06:19.022Z,1001.73
2017-01-30T06:07:29.199Z,1001.69
2017-01-30T06:08:39.375Z,1001.64
2017-01-30T06:09:49.554Z,1001.62
2017-01-30T06:11:00.227Z,1001.6
2017-01-30T06:12:10.400Z,1001.67
2017-01-30T06:13:20.126Z,1001.73
2017-01-30T06:14:29.855Z,1001.74
2017-01-30T06:15:39.591Z,1001.75
2017-01-30T06:16:49.816Z,1001.72
2017-01-30T06:17:59.546Z,1001.73
2017-01-30T06:19:09.715Z,1001.79
2017-01-30T06:20:19.887Z,1001.8
2017-01-30T06:21:30.062Z,1001.84
2017-01-30T06:22:40.300Z,1001.9
2017-01-30T06:23:50.911Z,1001.85
2017-01-30T06:25:01.097Z,1001.87
2017-01-30T06:26:10.826Z,1001.79
2017-01-30T06:27:20.562Z,1001.83
2017-01-30T06:28:31.336Z,1001.74
2017-01-30T06:29:41.069Z,1001.79
2017-01-30T06:30:50.802Z,1001.74
2017-01-30T06:32:00.096Z,1001.72
2017-01-30T06:33:09.829Z,1001.71
2017-01-30T06:34:20.054Z,1001.75
2017-01-30T06:35:29.791Z,1001.69
2017-01-30T06:36:40.409Z,1001.67
2017-01-30T06:37:50.141Z,1001.65
2017-01-30T06:38:59.875Z,1001.65
2017-01-30T06:40:10.104Z,1001.64
2017-01-30T06:41:20.277Z,1001.69
2017-01-30T06:42:30.447Z,1001.65
2017-01-30T06:43:40.192Z,1001.64
2017-01-30T06:44:50.374Z,1001.67
2017-01-30T06:46:00.318Z,1001.65
2017-01-30T06:47:10.050Z,1001.66
2017-01-30T06:48:19.341Z,1001.63
2017-01-30T06:49:29.542Z,1001.66
2017-01-30T06:50:39.296Z,1001.66
2017-01-30T06:51:49.081Z,1001.68
2017-01-30T06:52:59.262Z,1001.63
2017-01-30T06:54:08.994Z,1001.61
2017-01-30T06:55:18.728Z,1001.58
2017-01-30T06:56:28.458Z,1001.53
2017-01-30T06:57:38.678Z,1001.48
2017-01-30T06:58:48.411Z,1001.45
2017-01-30T06:59:58.149Z,1001.41
2017-01-30T07:01:08.318Z,1001.39
2017-01-30T07:02:18.484Z,1001.37
2017-01-30T07:03:28.273Z,1001.38
2017-01-30T07:04:38.018Z,1001.38
2017-01-30T07:05:48.203Z,1001.38
2017-01-30T07:06:57.501Z,1001.38
2017-01-30T07:08:07.231Z,1001.38
2017-01-30T07:09:17.011Z,1001.35
2017-01-30T07:10:26.748Z,1001.29
2017-01-30T07:11:37.357Z,1001.23
2017-01-30T07:12:47.969Z,1001.21
2017-01-30T07:13:57.704Z,1001.11
2017-01-30T07:15:07.500Z,1001.11
2017-01-30T07:16:17.669Z,1001.06
2017-01-30T07:17:27.843Z,1001.03
2017-01-30T07:18:38.460Z,1001.02
2017-01-30T07:19:48.201Z,1001.04
2017-01-30T07:20:57.987Z,1001
2017-01-30T07:22:07.719Z,1000.98
2017-01-30T07:23:17.456Z,1001.01
2017-01-30T07:24:27.190Z,1000.96
2017-01-30T07:25:37.375Z,1000.99
2017-01-30T07:26:47.164Z,1000.98
2017-01-30T07:27:57.338Z,1000.94
2017-01-30T07:29:07.071Z,1000.97
2017-01-30T07:30:17.240Z,1000.95
2017-01-30T07:31:27.017Z,1000.84
2017-01-30T07:32:37.242Z,1000.88
2017-01-30T07:33:47.423Z,1000.9
2017-01-30T07:34:57.598Z,1000.84
2017-01-30T07:36:07.334Z,1000.88
2017-01-30T07:37:17.511Z,1000.83
2017-01-30T07:38:27.305Z,1000.82
2017-01-30T07:39:37.042Z,1000.77
2017-01-30T07:40:46.775Z,1000.74
2017-01-30T07:41:56.946Z,1000.7
2017-01-30T07:43:06.713Z,1000.69
2017-01-30T07:44:16.935Z,1000.69
2017-01-30T07:45:26.668Z,1000.7
2017-01-30T07:46:36.846Z,1000.67
2017-01-30T07:47:46.585Z,1000.65
2017-01-30T07:48:56.756Z,1000.65
2017-01-30T07:50:06.097Z,1000.64
2017-01-30T07:51:15.835Z,1000.59
2017-01-30T07:52:25.571Z,1000.59
2017-01-30T07:53:35.748Z,1000.53
2017-01-30T07:54:46.362Z,1000.52
2017-01-30T07:55:56.146Z,1000.51
2017-01-30T07:57:06.320Z,1000.44
2017-01-30T07:58:16.526Z,1000.42
2017-01-30T07:59:26.260Z,1000.37
2017-01-30T08:00:35.995Z,1000.42
2017-01-30T08:01:45.781Z,1000.38
2017-01-30T08:02:55.538Z,1000.36
2017-01-30T08:04:05.271Z,1000.37
2017-01-30T08:05:15.441Z,1000.35
2017-01-30T08:06:25.613Z,1000.4
2017-01-30T08:07:35.399Z,1000.32
2017-01-30T08:08:45.572Z,1000.35
2017-01-30T08:09:55.308Z,1000.34
2017-01-30T08:11:05.914Z,1000.32
2017-01-30T08:12:15.647Z,1000.28
2017-01-30T08:13:25.873Z,1000.27
2017-01-30T08:14:35.610Z,1000.28
2017-01-30T08:15:45.785Z,1000.19
2017-01-30T08:16:55.961Z,1000.18
2017-01-30T08:18:05.698Z,1000.21
2017-01-30T08:19:16.011Z,1000.23
2017-01-30T08:20:26.185Z,1000.23
2017-01-30T08:21:36.362Z,1000.16
2017-01-30T08:22:46.982Z,1000.17
2017-01-30T08:23:57.160Z,1000.22
2017-01-30T08:25:07.380Z,1000.22
2017-01-30T08:26:17.118Z,1000.19
2017-01-30T08:27:26.851Z,1000.1
2017-01-30T08:28:37.025Z,1000.12
2017-01-30T08:29:46.762Z,1000.09
2017-01-30T08:30:56.539Z,1000.1
2017-01-30T08:32:06.276Z,1000.09
2017-01-30T08:33:16.010Z,1000.03
2017-01-30T08:34:26.626Z,1000.07
2017-01-30T08:35:36.800Z,1000
2017-01-30T08:36:47.022Z,999.97
2017-01-30T08:37:56.315Z,999.98
2017-01-30T08:39:05.614Z,999.94
2017-01-30T08:40:15.786Z,999.94
2017-01-30T08:41:25.520Z,999.94
2017-01-30T08:42:35.299Z,999.98
2017-01-30T08:43:44.596Z,999.94
2017-01-30T08:44:54.326Z,999.94
2017-01-30T08:46:03.624Z,999.96
2017-01-30T08:47:13.360Z,999.92
2017-01-30T08:48:22.701Z,999.89
2017-01-30T08:49:31.995Z,999.89
2017-01-30T08:50:41.287Z,999.91
2017-01-30T08:51:50.586Z,999.88
2017-01-30T08:52:59.877Z,999.91
2017-01-30T08:54:09.221Z,999.91
2017-01-30T08:55:19.402Z,999.94
2017-01-30T08:56:28.703Z,999.93
2017-01-30T08:57:37.993Z,999.94
2017-01-30T08:58:47.730Z,999.94
2017-01-30T08:59:57.077Z,999.98
2017-01-30T09:01:06.371Z,999.98
2017-01-30T09:02:16.106Z,999.99
2017-01-30T09:03:25.411Z,999.92
2017-01-30T09:04:35.142Z,999.95
2017-01-30T09:05:44.484Z,999.92
2017-01-30T09:06:54.662Z,999.91
2017-01-30T09:08:04.399Z,999.87
2017-01-30T09:09:13.688Z,999.83
2017-01-30T09:10:23.423Z,999.79
2017-01-30T09:11:33.215Z,999.8
2017-01-30T09:12:42.520Z,999.79
2017-01-30T09:13:51.812Z,999.78
2017-01-30T09:15:01.987Z,999.76
2017-01-30T09:16:11.282Z,999.68
2017-01-30T09:17:20.631Z,999.71
2017-01-30T09:18:30.361Z,999.72
2017-01-30T09:19:40.093Z,999.63
2017-01-30T09:20:49.391Z,999.67
2017-01-30T09:21:58.684Z,999.7
2017-01-30T09:23:08.020Z,999.66
2017-01-30T09:24:18.199Z,999.62
2017-01-30T09:25:27.498Z,999.64
2017-01-30T09:26:37.669Z,999.64
2017-01-30T09:27:46.958Z,999.57
2017-01-30T09:28:56.745Z,999.59
2017-01-30T09:30:06.035Z,999.57
2017-01-30T09:31:15.769Z,999.59
2017-01-30T09:32:25.502Z,999.54
2017-01-30T09:33:34.799Z,999.55
2017-01-30T09:34:44.127Z,999.53
2017-01-30T09:35:53.413Z,999.53
2017-01-30T09:37:02.709Z,999.55
2017-01-30T09:38:12.439Z,999.54
2017-01-30T09:39:22.176Z,999.53
2017-01-30T09:40:31.522Z,999.5
2017-01-30T09:41:41.263Z,999.49
2017-01-30T09:42:50.563Z,999.53
2017-01-30T09:43:59.878Z,999.51
2017-01-30T09:45:09.178Z,999.48
2017-01-30T09:46:18.519Z,999.5
2017-01-30T09:47:28.260Z,999.43
2017-01-30T09:48:38.429Z,999.48
2017-01-30T09:49:48.167Z,999.43
2017-01-30T09:50:57.904Z,999.51
2017-01-30T09:52:07.248Z,999.48
2017-01-30T09:53:16.544Z,999.47
2017-01-30T09:54:26.271Z,999.42
2017-01-30T09:55:35.564Z,999.42
2017-01-30T09:56:44.861Z,999.42
2017-01-30T09:57:54.639Z,999.42
2017-01-30T09:59:04.375Z,999.41
2017-01-30T10:00:14.132Z,999.39
2017-01-30T10:01:23.861Z,999.39
2017-01-30T10:02:33.152Z,999.4
2017-01-30T10:03:43.388Z,999.38
2017-01-30T10:04:53.130Z,999.35
2017-01-30T10:06:02.859Z,999.35
2017-01-30T10:07:13.040Z,999.35
2017-01-30T10:08:22.776Z,999.32
2017-01-30T10:09:32.122Z,999.34
2017-01-30T10:10:41.859Z,999.27
2017-01-30T10:11:51.159Z,999.27
2017-01-30T10:13:01.332Z,999.31
2017-01-30T10:14:11.501Z,999.3
2017-01-30T10:15:22.163Z,999.28
2017-01-30T10:16:31.456Z,999.26
2017-01-30T10:17:40.752Z,999.22
2017-01-30T10:18:50.044Z,999.22
2017-01-30T10:19:59.348Z,999.2
2017-01-30T10:21:09.581Z,999.19
2017-01-30T10:22:18.868Z,999.13
2017-01-30T10:23:28.172Z,999.16
2017-01-30T10:24:37.469Z,999.14
2017-01-30T10:25:46.774Z,999.17
2017-01-30T10:26:56.560Z,999.14
2017-01-30T10:28:06.728Z,999.15
2017-01-30T10:29:16.012Z,999.15
2017-01-30T10:30:26.635Z,999.11
2017-01-30T10:31:35.932Z,999.11
2017-01-30T10:32:45.278Z,999.12
2017-01-30T10:33:54.567Z,999.12
2017-01-30T10:35:03.863Z,999.08
2017-01-30T10:36:14.037Z,999.12
2017-01-30T10:37:23.329Z,999.06
2017-01-30T10:38:33.555Z,999.09
2017-01-30T10:39:43.725Z,999.06
2017-01-30T10:40:53.902Z,999.07
2017-01-30T10:42:03.191Z,999.03
2017-01-30T10:43:12.481Z,999.06
2017-01-30T10:44:22.270Z,999.01
2017-01-30T10:45:31.555Z,999.02
2017-01-30T10:46:41.285Z,998.95
2017-01-30T10:47:50.577Z,998.91
2017-01-30T10:48:59.871Z,998.91
2017-01-30T10:50:09.224Z,998.91
2017-01-30T10:51:18.513Z,998.89
2017-01-30T10:52:28.244Z,998.82
2017-01-30T10:53:37.535Z,998.82
2017-01-30T10:54:46.833Z,998.82
2017-01-30T10:55:56.623Z,998.83
2017-01-30T10:57:06.356Z,998.82
2017-01-30T10:58:16.529Z,998.81
2017-01-30T10:59:26.711Z,998.73
2017-01-30T11:00:36.442Z,998.72
2017-01-30T11:01:45.789Z,998.71
2017-01-30T11:02:55.962Z,998.68
2017-01-30T11:04:05.699Z,998.66
2017-01-30T11:05:15.867Z,998.66
2017-01-30T11:06:25.153Z,998.56
2017-01-30T11:07:35.375Z,998.58
2017-01-30T11:08:44.667Z,998.51
2017-01-30T11:09:54.401Z,998.51
2017-01-30T11:11:03.697Z,998.47
2017-01-30T11:12:12.987Z,998.41
2017-01-30T11:13:22.817Z,998.4
2017-01-30T11:14:32.107Z,998.38
2017-01-30T11:15:41.404Z,998.34
2017-01-30T11:16:50.700Z,998.41
2017-01-30T11:17:59.994Z,998.37
2017-01-30T11:19:09.782Z,998.34
2017-01-30T11:20:19.948Z,998.3
2017-01-30T11:21:29.245Z,998.22
2017-01-30T11:22:38.539Z,998.25
2017-01-30T11:23:47.835Z,998.23
2017-01-30T11:24:58.601Z,998.25
2017-01-30T11:26:07.900Z,998.21
2017-01-30T11:27:18.516Z,998.24
2017-01-30T11:28:28.687Z,998.2
2017-01-30T11:29:38.433Z,998.2
2017-01-30T11:30:48.221Z,998.18
2017-01-30T11:31:57.952Z,998.17
2017-01-30T11:33:07.691Z,998.17
2017-01-30T11:34:17.860Z,998.13
2017-01-30T11:35:27.587Z,998.12
2017-01-30T11:36:37.375Z,998.11
2017-01-30T11:37:46.672Z,998.07
2017-01-30T11:38:56.397Z,998.03
2017-01-30T11:40:06.131Z,998.03
2017-01-30T11:41:15.433Z,997.99
2017-01-30T11:42:24.773Z,997.99
2017-01-30T11:43:34.511Z,997.99
2017-01-30T11:44:43.804Z,997.95
2017-01-30T11:45:53.100Z,997.92
2017-01-30T11:47:02.835Z,997.95
2017-01-30T11:48:12.172Z,997.88
2017-01-30T11:49:21.474Z,997.86
2017-01-30T11:50:30.762Z,997.84
2017-01-30T11:51:40.056Z,997.83
2017-01-30T11:52:49.791Z,997.83
2017-01-30T11:53:59.573Z,997.84
2017-01-30T11:55:09.751Z,997.77
2017-01-30T11:56:19.933Z,997.8
2017-01-30T11:57:29.666Z,997.78
2017-01-30T11:58:39.865Z,997.76
2017-01-30T11:59:49.208Z,997.77
2017-01-30T12:00:59.385Z,997.76
2017-01-30T12:02:10.006Z,997.76
2017-01-30T12:03:19.304Z,997.73
2017-01-30T12:04:29.032Z,997.69
2017-01-30T12:05:38.824Z,997.7
2017-01-30T12:06:48.560Z,997.68
2017-01-30T12:07:57.890Z,997.65
2017-01-30T12:09:07.181Z,997.63
2017-01-30T12:10:16.919Z,997.62
2017-01-30T12:11:26.703Z,997.63
2017-01-30T12:12:37.314Z,997.61
2017-01-30T12:13:46.605Z,997.57
2017-01-30T12:14:57.224Z,997.54
2017-01-30T12:16:07.400Z,997.49
2017-01-30T12:17:17.624Z,997.55
2017-01-30T12:18:26.915Z,997.53
2017-01-30T12:19:36.652Z,997.46
2017-01-30T12:20:45.950Z,997.46
2017-01-30T12:21:55.687Z,997.4
2017-01-30T12:23:05.919Z,997.36
2017-01-30T12:24:15.658Z,997.3
2017-01-30T12:25:25.395Z,997.31
2017-01-30T12:26:34.684Z,997.36
2017-01-30T12:27:43.980Z,997.32
2017-01-30T12:28:53.769Z,997.3
2017-01-30T12:30:03.495Z,997.27
2017-01-30T12:31:12.791Z,997.3
2017-01-30T12:32:22.526Z,997.23
2017-01-30T12:33:32.259Z,997.21
2017-01-30T12:34:41.609Z,997.15
2017-01-30T12:35:51.337Z,997.15
2017-01-30T12:37:00.629Z,997.14
2017-01-30T12:38:09.928Z,997.13
2017-01-30T12:39:19.221Z,997.09
2017-01-30T12:40:29.007Z,997.11
2017-01-30T12:41:38.306Z,997.08
2017-01-30T12:42:48.036Z,997.08
2017-01-30T12:43:57.333Z,997.08
2017-01-30T12:45:07.063Z,997.07
2017-01-30T12:46:16.853Z,997.03
2017-01-30T12:47:26.146Z,997.03
2017-01-30T12:48:35.890Z,997
2017-01-30T12:49:45.647Z,997.02
2017-01-30T12:50:54.949Z,996.97
2017-01-30T12:52:04.399Z,996.92
2017-01-30T12:53:13.690Z,996.99
2017-01-30T12:54:23.418Z,996.96
2017-01-30T12:55:32.715Z,996.92
2017-01-30T12:56:42.442Z,996.89
2017-01-30T12:57:51.805Z,996.91
2017-01-30T12:59:01.550Z,996.92
2017-01-30T13:00:10.843Z,996.84
2017-01-30T13:01:20.584Z,996.84
2017-01-30T13:02:29.874Z,996.86
2017-01-30T13:03:39.663Z,996.83
2017-01-30T13:04:49.399Z,996.86
2017-01-30T13:05:58.698Z,996.83
2017-01-30T13:07:07.990Z,996.83
2017-01-30T13:08:17.719Z,996.85
2017-01-30T13:09:27.505Z,996.81
2017-01-30T13:10:37.242Z,996.83
2017-01-30T13:11:46.534Z,996.8
2017-01-30T13:12:55.828Z,996.85
2017-01-30T13:14:06.450Z,996.83
2017-01-30T13:15:15.795Z,996.82
2017-01-30T13:16:25.088Z,996.82
2017-01-30T13:17:34.386Z,996.81
2017-01-30T13:18:43.682Z,996.77
2017-01-30T13:19:52.972Z,996.76
2017-01-30T13:21:02.317Z,996.75
2017-01-30T13:22:12.055Z,996.76
2017-01-30T13:23:21.783Z,996.75
2017-01-30T13:24:31.536Z,996.71
2017-01-30T13:25:40.833Z,996.73
2017-01-30T13:26:51.498Z,996.69
2017-01-30T13:28:01.679Z,996.72
2017-01-30T13:29:10.968Z,996.69
2017-01-30T13:30:20.713Z,996.64
2017-01-30T13:31:30.014Z,996.63
2017-01-30T13:32:39.804Z,996.62
2017-01-30T13:33:49.536Z,996.64
2017-01-30T13:34:59.273Z,996.6
2017-01-30T13:36:08.562Z,996.58
2017-01-30T13:37:18.296Z,996.56
2017-01-30T13:38:28.089Z,996.57
2017-01-30T13:39:37.389Z,996.55
2017-01-30T13:40:46.687Z,996.59
2017-01-30T13:41:56.416Z,996.57
2017-01-30T13:43:06.149Z,996.56
2017-01-30T13:44:15.497Z,996.57
2017-01-30T13:45:26.143Z,996.55
2017-01-30T13:46:35.872Z,996.54
2017-01-30T13:47:45.611Z,996.54
2017-01-30T13:48:54.903Z,996.58
2017-01-30T13:50:04.400Z,996.57
2017-01-30T13:51:13.688Z,996.57
2017-01-30T13:52:22.978Z,996.51
2017-01-30T13:53:32.276Z,996.54
2017-01-30T13:54:41.564Z,996.59
2017-01-30T13:55:51.498Z,996.55
2017-01-30T13:57:01.241Z,996.55
2017-01-30T13:58:10.976Z,996.52
2017-01-30T13:59:20.709Z,996.55
2017-01-30T14:00:30.443Z,996.54
2017-01-30T14:01:39.807Z,996.52
2017-01-30T14:02:49.541Z,996.53
2017-01-30T14:03:58.869Z,996.52
2017-01-30T14:05:08.607Z,996.56
2017-01-30T14:06:17.899Z,996.55
2017-01-30T14:07:27.688Z,996.53
2017-01-30T14:08:36.978Z,996.53
2017-01-30T14:09:46.715Z,996.55
2017-01-30T14:10:56.451Z,996.53
2017-01-30T14:12:06.634Z,996.51
2017-01-30T14:13:16.575Z,996.51
2017-01-30T14:14:26.304Z,996.52
2017-01-30T14:15:36.040Z,996.48
2017-01-30T14:16:45.330Z,996.52
2017-01-30T14:17:54.624Z,996.49